sensor_id;sensor_type;location;lat;lon;timestamp;P1;durP1;ratioP1;P2;durP2;ratioP2
22673;SDS011;11504;43.334;21.918;2024-03-02T00:04:25;18.0;;;17.0;;
22673;SDS011;11504;43.334;21.918;2024-03-02T00:09:02;16.0;;;16.0;;
22673;SDS011;11504;43.334;21.918;2024-03-02T00:13:39;16.0;;;16.0;;
22673;SDS011;11504;43.334;21.918;2024-03-02T00:18:17;16.0;;;16.0;;
22673;SDS011;11504;43.334;21.918;2024-03-02T00:23:05;14.0;;;14.0;;
22673;SDS011;11504;43.334;21.918;2024-03-02T00:27:49;14.0;;;14.0;;
22673;SDS011;11504;43.334;21.918;2024-03-02T00:32:25;16.0;;;16.0;;
22673;SDS011;11504;43.334;21.918;2024-03-02T00:37:01;16.0;;;16.0;;
22673;SDS011;11504;43.334;21.918;2024-03-02T00:41:38;18.0;;;17.0;;
22673;SDS011;11504;43.334;21.918;2024-03-02T00:46:18;18.0;;;17.0;;
22673;SDS011;11504;43.334;21.918;2024-03-02T00:50:56;18.0;;;18.0;;
22673;SDS011;11504;43.334;21.918;2024-03-02T00:55:35;18.0;;;18.0;;
22673;SDS011;11504;43.334;21.918;2024-03-02T01:00:14;19.0;;;18.0;;
22673;SDS011;11504;43.334;21.918;2024-03-02T01:04:52;19.0;;;18.0;;
22673;SDS011;11504;43.334;21.918;2024-03-02T01:09:28;18.0;;;17.0;;
22673;SDS011;11504;43.334;21.918;2024-03-02T01:14:04;18.0;;;17.0;;
22673;SDS011;11504;43.334;21.918;2024-03-02T01:18:41;18.0;;;17.0;;
22673;SDS011;11504;43.334;21.918;2024-03-02T01:23:19;17.0;;;16.0;;
22673;SDS011;11504;43.334;21.918;2024-03-02T01:27:55;17.0;;;16.0;;
22673;SDS011;11504;43.334;21.918;2024-03-02T01:32:31;16.0;;;16.0;;
22673;SDS011;11504;43.334;21.918;2024-03-02T01:37:07;16.0;;;16.0;;
22673;SDS011;11504;43.334;21.918;2024-03-02T01:41:43;15.0;;;15.0;;
22673;SDS011;11504;43.334;21.918;2024-03-02T01:46:19;15.0;;;15.0;;
22673;SDS011;11504;43.334;21.918;2024-03-02T01:50:56;15.0;;;14.0;;
22673;SDS011;11504;43.334;21.918;2024-03-02T01:55:32;15.0;;;14.0;;
22673;SDS011;11504;43.334;21.918;2024-03-02T02:00:09;15.0;;;14.0;;
22673;SDS011;11504;43.334;21.918;2024-03-02T02:04:50;15.0;;;14.0;;
22673;SDS011;11504;43.334;21.918;2024-03-02T02:09:26;14.0;;;14.0;;
22673;SDS011;11504;43.334;21.918;2024-03-02T02:14:02;14.0;;;14.0;;
22673;SDS011;11504;43.334;21.918;2024-03-02T02:18:38;14.0;;;14.0;;
22673;SDS011;11504;43.334;21.918;2024-03-02T02:23:15;14.0;;;13.0;;
22673;SDS011;11504;43.334;21.918;2024-03-02T02:27:51;14.0;;;13.0;;
22673;SDS011;11504;43.334;21.918;2024-03-02T02:32:29;14.0;;;12.0;;
22673;SDS011;11504;43.334;21.918;2024-03-02T02:37:05;14.0;;;12.0;;
22673;SDS011;11504;43.334;21.918;2024-03-02T02:41:41;13.0;;;12.0;;
22673;SDS011;11504;43.334;21.918;2024-03-02T02:46:18;13.0;;;12.0;;
22673;SDS011;11504;43.334;21.918;2024-03-02T02:50:54;14.0;;;12.0;;
22673;SDS011;11504;43.334;21.918;2024-03-02T02:55:30;14.0;;;12.0;;
22673;SDS011;11504;43.334;21.918;2024-03-02T03:00:07;14.0;;;13.0;;
22673;SDS011;11504;43.334;21.918;2024-03-02T03:04:52;14.0;;;13.0;;
22673;SDS011;11504;43.334;21.918;2024-03-02T03:09:28;12.0;;;12.0;;
22673;SDS011;11504;43.334;21.918;2024-03-02T03:14:04;12.0;;;12.0;;
22673;SDS011;11504;43.334;21.918;2024-03-02T03:18:41;12.0;;;12.0;;
22673;SDS011;11504;43.334;21.918;2024-03-02T03:23:17;11.0;;;11.0;;
22673;SDS011;11504;43.334;21.918;2024-03-02T03:27:53;11.0;;;11.0;;
22673;SDS011;11504;43.334;21.918;2024-03-02T03:32:29;11.0;;;11.0;;
22673;SDS011;11504;43.334;21.918;2024-03-02T03:37:05;11.0;;;11.0;;
22673;SDS011;11504;43.334;21.918;2024-03-02T03:41:42;11.0;;;11.0;;
22673;SDS011;11504;43.334;21.918;2024-03-02T03:46:18;11.0;;;11.0;;
22673;SDS011;11504;43.334;21.918;2024-03-02T03:50:54;10.0;;;10.0;;
22673;SDS011;11504;43.334;21.918;2024-03-02T03:55:30;10.0;;;10.0;;
22673;SDS011;11504;43.334;21.918;2024-03-02T04:00:07;10.0;;;10.0;;
22673;SDS011;11504;43.334;21.918;2024-03-02T04:04:47;10.0;;;10.0;;
22673;SDS011;11504;43.334;21.918;2024-03-02T04:09:23;10.0;;;10.0;;
22673;SDS011;11504;43.334;21.918;2024-03-02T04:13:59;10.0;;;10.0;;
22673;SDS011;11504;43.334;21.918;2024-03-02T04:18:36;10.0;;;10.0;;
22673;SDS011;11504;43.334;21.918;2024-03-02T04:23:12;11.0;;;10.0;;
22673;SDS011;11504;43.334;21.918;2024-03-02T04:27:48;11.0;;;10.0;;
22673;SDS011;11504;43.334;21.918;2024-03-02T04:32:24;12.0;;;10.0;;
22673;SDS011;11504;43.334;21.918;2024-03-02T04:37:00;12.0;;;10.0;;
22673;SDS011;11504;43.334;21.918;2024-03-02T04:41:37;12.0;;;11.0;;
22673;SDS011;11504;43.334;21.918;2024-03-02T04:46:13;12.0;;;11.0;;
22673;SDS011;11504;43.334;21.918;2024-03-02T04:50:51;12.0;;;10.0;;
22673;SDS011;11504;43.334;21.918;2024-03-02T04:55:27;12.0;;;10.0;;
22673;SDS011;11504;43.334;21.918;2024-03-02T05:00:03;11.0;;;10.0;;
22673;SDS011;11504;43.334;21.918;2024-03-02T05:04:43;11.0;;;10.0;;
22673;SDS011;11504;43.334;21.918;2024-03-02T05:09:19;12.0;;;11.0;;
22673;SDS011;11504;43.334;21.918;2024-03-02T05:13:55;12.0;;;11.0;;
22673;SDS011;11504;43.334;21.918;2024-03-02T05:18:31;12.0;;;11.0;;
22673;SDS011;11504;43.334;21.918;2024-03-02T05:23:08;12.0;;;12.0;;
22673;SDS011;11504;43.334;21.918;2024-03-02T05:27:44;12.0;;;12.0;;
22673;SDS011;11504;43.334;21.918;2024-03-02T05:32:21;12.0;;;12.0;;
22673;SDS011;11504;43.334;21.918;2024-03-02T05:36:57;12.0;;;12.0;;
22673;SDS011;11504;43.334;21.918;2024-03-02T05:41:33;12.0;;;11.0;;
22673;SDS011;11504;43.334;21.918;2024-03-02T05:46:10;12.0;;;11.0;;
22673;SDS011;11504;43.334;21.918;2024-03-02T05:50:46;15.0;;;14.0;;
22673;SDS011;11504;43.334;21.918;2024-03-02T05:55:22;15.0;;;14.0;;
22673;SDS011;11504;43.334;21.918;2024-03-02T05:59:58;18.0;;;17.0;;
22673;SDS011;11504;43.334;21.918;2024-03-02T06:04:35;18.0;;;17.0;;
22673;SDS011;11504;43.334;21.918;2024-03-02T06:09:11;16.0;;;16.0;;
22673;SDS011;11504;43.334;21.918;2024-03-02T06:13:47;16.0;;;16.0;;
22673;SDS011;11504;43.334;21.918;2024-03-02T06:18:23;16.0;;;16.0;;
22673;SDS011;11504;43.334;21.918;2024-03-02T06:22:59;15.0;;;14.0;;
22673;SDS011;11504;43.334;21.918;2024-03-02T06:27:36;15.0;;;14.0;;
22673;SDS011;11504;43.334;21.918;2024-03-02T06:32:12;14.0;;;14.0;;
22673;SDS011;11504;43.334;21.918;2024-03-02T06:36:47;14.0;;;14.0;;
22673;SDS011;11504;43.334;21.918;2024-03-02T06:41:23;14.0;;;13.0;;
22673;SDS011;11504;43.334;21.918;2024-03-02T06:46:00;14.0;;;13.0;;
22673;SDS011;11504;43.334;21.918;2024-03-02T06:50:36;14.0;;;12.0;;
22673;SDS011;11504;43.334;21.918;2024-03-02T06:55:12;14.0;;;12.0;;
22673;SDS011;11504;43.334;21.918;2024-03-02T06:59:49;13.0;;;12.0;;
22673;SDS011;11504;43.334;21.918;2024-03-02T07:04:25;13.0;;;12.0;;
22673;SDS011;11504;43.334;21.918;2024-03-02T07:09:02;13.0;;;12.0;;
22673;SDS011;11504;43.334;21.918;2024-03-02T07:13:38;13.0;;;12.0;;
22673;SDS011;11504;43.334;21.918;2024-03-02T07:18:15;13.0;;;12.0;;
22673;SDS011;11504;43.334;21.918;2024-03-02T07:22:52;13.0;;;13.0;;
22673;SDS011;11504;43.334;21.918;2024-03-02T07:27:28;13.0;;;13.0;;
22673;SDS011;11504;43.334;21.918;2024-03-02T07:32:07;12.0;;;12.0;;
22673;SDS011;11504;43.334;21.918;2024-03-02T07:36:46;12.0;;;12.0;;
22673;SDS011;11504;43.334;21.918;2024-03-02T07:41:22;11.0;;;11.0;;
22673;SDS011;11504;43.334;21.918;2024-03-02T07:45:59;11.0;;;11.0;;
22673;SDS011;11504;43.334;21.918;2024-03-02T07:50:36;12.0;;;12.0;;
22673;SDS011;11504;43.334;21.918;2024-03-02T07:55:12;12.0;;;12.0;;
22673;SDS011;11504;43.334;21.918;2024-03-02T07:59:48;13.0;;;12.0;;
22673;SDS011;11504;43.334;21.918;2024-03-02T08:04:25;13.0;;;12.0;;
22673;SDS011;11504;43.334;21.918;2024-03-02T08:09:01;13.0;;;12.0;;
22673;SDS011;11504;43.334;21.918;2024-03-02T08:13:38;11.0;;;10.0;;
22673;SDS011;11504;43.334;21.918;2024-03-02T08:18:14;11.0;;;10.0;;
22673;SDS011;11504;43.334;21.918;2024-03-02T08:22:51;9.0;;;9.0;;
22673;SDS011;11504;43.334;21.918;2024-03-02T08:27:28;9.0;;;9.0;;
22673;SDS011;11504;43.334;21.918;2024-03-02T08:32:06;9.0;;;9.0;;
22673;SDS011;11504;43.334;21.918;2024-03-02T08:36:42;9.0;;;9.0;;
22673;SDS011;11504;43.334;21.918;2024-03-02T08:41:19;9.0;;;9.0;;
22673;SDS011;11504;43.334;21.918;2024-03-02T08:45:57;9.0;;;9.0;;
22673;SDS011;11504;43.334;21.918;2024-03-02T08:50:33;11.0;;;10.0;;
22673;SDS011;11504;43.334;21.918;2024-03-02T08:55:09;11.0;;;10.0;;
22673;SDS011;11504;43.334;21.918;2024-03-02T08:59:45;13.0;;;12.0;;
22673;SDS011;11504;43.334;21.918;2024-03-02T09:04:21;13.0;;;12.0;;
22673;SDS011;11504;43.334;21.918;2024-03-02T09:08:58;13.0;;;12.0;;
22673;SDS011;11504;43.334;21.918;2024-03-02T09:13:34;14.0;;;12.0;;
22673;SDS011;11504;43.334;21.918;2024-03-02T09:18:11;14.0;;;12.0;;
22673;SDS011;11504;43.334;21.918;2024-03-02T09:22:48;14.0;;;13.0;;
22673;SDS011;11504;43.334;21.918;2024-03-02T09:27:24;14.0;;;13.0;;
22673;SDS011;11504;43.334;21.918;2024-03-02T09:32:01;14.0;;;12.0;;
22673;SDS011;11504;43.334;21.918;2024-03-02T09:36:37;14.0;;;12.0;;
22673;SDS011;11504;43.334;21.918;2024-03-02T09:41:13;13.0;;;12.0;;
22673;SDS011;11504;43.334;21.918;2024-03-02T09:45:51;13.0;;;12.0;;
22673;SDS011;11504;43.334;21.918;2024-03-02T09:50:29;14.0;;;13.0;;
22673;SDS011;11504;43.334;21.918;2024-03-02T09:55:05;14.0;;;13.0;;
22673;SDS011;11504;43.334;21.918;2024-03-02T09:59:44;15.0;;;14.0;;
22673;SDS011;11504;43.334;21.918;2024-03-02T10:04:20;15.0;;;14.0;;
22673;SDS011;11504;43.334;21.918;2024-03-02T10:08:57;15.0;;;14.0;;
22673;SDS011;11504;43.334;21.918;2024-03-02T10:13:33;15.0;;;14.0;;
22673;SDS011;11504;43.334;21.918;2024-03-02T10:18:09;15.0;;;14.0;;
22673;SDS011;11504;43.334;21.918;2024-03-02T10:22:48;15.0;;;14.0;;
22673;SDS011;11504;43.334;21.918;2024-03-02T10:27:26;15.0;;;14.0;;
22673;SDS011;11504;43.334;21.918;2024-03-02T10:32:04;16.0;;;14.0;;
22673;SDS011;11504;43.334;21.918;2024-03-02T10:36:45;16.0;;;14.0;;
22673;SDS011;11504;43.334;21.918;2024-03-02T10:41:26;16.0;;;15.0;;
22673;SDS011;11504;43.334;21.918;2024-03-02T10:46:09;16.0;;;15.0;;
22673;SDS011;11504;43.334;21.918;2024-03-02T10:50:55;17.0;;;16.0;;
22673;SDS011;11504;43.334;21.918;2024-03-02T10:55:31;17.0;;;16.0;;
22673;SDS011;11504;43.334;21.918;2024-03-02T11:00:11;18.0;;;17.0;;
22673;SDS011;11504;43.334;21.918;2024-03-02T11:04:50;18.0;;;17.0;;
22673;SDS011;11504;43.334;21.918;2024-03-02T11:09:44;16.0;;;16.0;;
22673;SDS011;11504;43.334;21.918;2024-03-02T11:14:40;16.0;;;16.0;;
22673;SDS011;11504;43.334;21.918;2024-03-02T11:19:18;14.0;;;14.0;;
22673;SDS011;11504;43.334;21.918;2024-03-02T11:23:56;14.0;;;14.0;;
22673;SDS011;11504;43.334;21.918;2024-03-02T11:28:34;14.0;;;14.0;;
22673;SDS011;11504;43.334;21.918;2024-03-02T11:33:11;14.0;;;13.0;;
22673;SDS011;11504;43.334;21.918;2024-03-02T11:37:47;14.0;;;13.0;;
22673;SDS011;11504;43.334;21.918;2024-03-02T11:42:24;13.0;;;12.0;;
22673;SDS011;11504;43.334;21.918;2024-03-02T11:47:02;13.0;;;12.0;;
22673;SDS011;11504;43.334;21.918;2024-03-02T11:51:50;13.0;;;12.0;;
22673;SDS011;11504;43.334;21.918;2024-03-02T11:56:36;13.0;;;12.0;;
22673;SDS011;11504;43.334;21.918;2024-03-02T12:01:13;13.0;;;12.0;;
22673;SDS011;11504;43.334;21.918;2024-03-02T12:05:49;13.0;;;12.0;;
22673;SDS011;11504;43.334;21.918;2024-03-02T12:10:30;14.0;;;13.0;;
22673;SDS011;11504;43.334;21.918;2024-03-02T12:15:09;14.0;;;13.0;;
22673;SDS011;11504;43.334;21.918;2024-03-02T12:19:45;15.0;;;14.0;;
22673;SDS011;11504;43.334;21.918;2024-03-02T12:24:21;15.0;;;14.0;;
22673;SDS011;11504;43.334;21.918;2024-03-02T12:29:03;15.0;;;14.0;;
22673;SDS011;11504;43.334;21.918;2024-03-02T12:33:40;13.0;;;12.0;;
22673;SDS011;11504;43.334;21.918;2024-03-02T12:38:17;13.0;;;12.0;;
22673;SDS011;11504;43.334;21.918;2024-03-02T12:42:53;11.0;;;10.0;;
22673;SDS011;11504;43.334;21.918;2024-03-02T12:47:29;11.0;;;10.0;;
22673;SDS011;11504;43.334;21.918;2024-03-02T12:52:05;10.0;;;9.0;;
22673;SDS011;11504;43.334;21.918;2024-03-02T12:56:42;10.0;;;9.0;;
22673;SDS011;11504;43.334;21.918;2024-03-02T13:01:19;8.0;;;8.0;;
22673;SDS011;11504;43.334;21.918;2024-03-02T13:05:55;8.0;;;8.0;;
22673;SDS011;11504;43.334;21.918;2024-03-02T13:10:31;8.0;;;8.0;;
22673;SDS011;11504;43.334;21.918;2024-03-02T13:15:08;8.0;;;8.0;;
22673;SDS011;11504;43.334;21.918;2024-03-02T13:19:53;9.0;;;9.0;;
22673;SDS011;11504;43.334;21.918;2024-03-02T13:24:35;9.0;;;9.0;;
22673;SDS011;11504;43.334;21.918;2024-03-02T13:29:11;9.0;;;9.0;;
22673;SDS011;11504;43.334;21.918;2024-03-02T13:33:47;10.0;;;10.0;;
22673;SDS011;11504;43.334;21.918;2024-03-02T13:38:24;10.0;;;10.0;;
22673;SDS011;11504;43.334;21.918;2024-03-02T13:43:00;11.0;;;10.0;;
22673;SDS011;11504;43.334;21.918;2024-03-02T13:47:38;11.0;;;10.0;;
22673;SDS011;11504;43.334;21.918;2024-03-02T13:52:15;10.0;;;10.0;;
22673;SDS011;11504;43.334;21.918;2024-03-02T13:56:51;10.0;;;10.0;;
22673;SDS011;11504;43.334;21.918;2024-03-02T14:01:28;10.0;;;9.0;;
22673;SDS011;11504;43.334;21.918;2024-03-02T14:06:04;10.0;;;9.0;;
22673;SDS011;11504;43.334;21.918;2024-03-02T14:10:41;10.0;;;9.0;;
22673;SDS011;11504;43.334;21.918;2024-03-02T14:15:17;10.0;;;9.0;;
22673;SDS011;11504;43.334;21.918;2024-03-02T15:10:28;13.0;;;13.0;;
22673;SDS011;11504;43.334;21.918;2024-03-02T15:15:05;13.0;;;13.0;;
22673;SDS011;11504;43.334;21.918;2024-03-02T15:19:42;13.0;;;13.0;;
22673;SDS011;11504;43.334;21.918;2024-03-02T15:24:18;13.0;;;13.0;;
22673;SDS011;11504;43.334;21.918;2024-03-02T15:28:54;13.0;;;13.0;;
22673;SDS011;11504;43.334;21.918;2024-03-02T15:33:30;14.0;;;13.0;;
22673;SDS011;11504;43.334;21.918;2024-03-02T15:38:06;14.0;;;13.0;;
22673;SDS011;11504;43.334;21.918;2024-03-02T15:42:42;14.0;;;13.0;;
22673;SDS011;11504;43.334;21.918;2024-03-02T15:47:19;14.0;;;13.0;;
22673;SDS011;11504;43.334;21.918;2024-03-02T15:51:55;14.0;;;13.0;;
22673;SDS011;11504;43.334;21.918;2024-03-02T15:56:31;14.0;;;13.0;;
22673;SDS011;11504;43.334;21.918;2024-03-02T16:01:07;14.0;;;13.0;;
22673;SDS011;11504;43.334;21.918;2024-03-02T16:05:44;14.0;;;13.0;;
22673;SDS011;11504;43.334;21.918;2024-03-02T16:10:20;14.0;;;13.0;;
22673;SDS011;11504;43.334;21.918;2024-03-02T16:14:56;14.0;;;13.0;;
22673;SDS011;11504;43.334;21.918;2024-03-02T16:19:32;14.0;;;13.0;;
22673;SDS011;11504;43.334;21.918;2024-03-02T16:24:08;13.0;;;13.0;;
22673;SDS011;11504;43.334;21.918;2024-03-02T16:28:44;13.0;;;13.0;;
22673;SDS011;11504;43.334;21.918;2024-03-02T16:33:21;20.0;;;20.0;;
22673;SDS011;11504;43.334;21.918;2024-03-02T16:37:57;20.0;;;20.0;;
22673;SDS011;11504;43.334;21.918;2024-03-02T16:42:33;27.0;;;26.0;;
22673;SDS011;11504;43.334;21.918;2024-03-02T16:47:09;27.0;;;26.0;;
22673;SDS011;11504;43.334;21.918;2024-03-02T16:51:45;29.0;;;28.0;;
22673;SDS011;11504;43.334;21.918;2024-03-02T16:56:21;29.0;;;28.0;;
22673;SDS011;11504;43.334;21.918;2024-03-02T17:00:57;31.0;;;29.0;;
22673;SDS011;11504;43.334;21.918;2024-03-02T17:05:33;31.0;;;29.0;;
22673;SDS011;11504;43.334;21.918;2024-03-02T17:10:11;30.0;;;28.0;;
22673;SDS011;11504;43.334;21.918;2024-03-02T17:14:47;30.0;;;28.0;;
22673;SDS011;11504;43.334;21.918;2024-03-02T17:19:23;30.0;;;28.0;;
22673;SDS011;11504;43.334;21.918;2024-03-02T17:23:59;29.0;;;28.0;;
22673;SDS011;11504;43.334;21.918;2024-03-02T17:28:36;29.0;;;28.0;;
22673;SDS011;11504;43.334;21.918;2024-03-02T17:33:12;46.0;;;44.0;;
22673;SDS011;11504;43.334;21.918;2024-03-02T17:37:49;46.0;;;44.0;;
22673;SDS011;11504;43.334;21.918;2024-03-02T17:42:25;62.0;;;59.0;;
22673;SDS011;11504;43.334;21.918;2024-03-02T17:47:01;62.0;;;59.0;;
22673;SDS011;11504;43.334;21.918;2024-03-02T17:51:37;62.0;;;58.0;;
22673;SDS011;11504;43.334;21.918;2024-03-02T17:56:14;62.0;;;58.0;;
22673;SDS011;11504;43.334;21.918;2024-03-02T18:00:50;61.0;;;58.0;;
22673;SDS011;11504;43.334;21.918;2024-03-02T18:05:27;61.0;;;58.0;;
22673;SDS011;11504;43.334;21.918;2024-03-02T18:10:05;77.0;;;73.0;;
22673;SDS011;11504;43.334;21.918;2024-03-02T18:14:43;77.0;;;73.0;;
22673;SDS011;11504;43.334;21.918;2024-03-02T18:19:20;77.0;;;73.0;;
22673;SDS011;11504;43.334;21.918;2024-03-02T18:23:56;93.0;;;88.0;;
22673;SDS011;11504;43.334;21.918;2024-03-02T18:28:32;93.0;;;88.0;;
22673;SDS011;11504;43.334;21.918;2024-03-02T18:33:08;86.0;;;82.0;;
22673;SDS011;11504;43.334;21.918;2024-03-02T18:37:45;86.0;;;82.0;;
22673;SDS011;11504;43.334;21.918;2024-03-02T18:42:21;79.0;;;75.0;;
22673;SDS011;11504;43.334;21.918;2024-03-02T18:46:57;79.0;;;75.0;;
22673;SDS011;11504;43.334;21.918;2024-03-02T18:51:34;64.0;;;60.0;;
22673;SDS011;11504;43.334;21.918;2024-03-02T18:56:10;64.0;;;60.0;;
22673;SDS011;11504;43.334;21.918;2024-03-02T19:00:47;49.0;;;46.0;;
22673;SDS011;11504;43.334;21.918;2024-03-02T19:05:23;49.0;;;46.0;;
22673;SDS011;11504;43.334;21.918;2024-03-02T19:10:00;47.0;;;43.0;;
22673;SDS011;11504;43.334;21.918;2024-03-02T19:14:37;47.0;;;43.0;;
22673;SDS011;11504;43.334;21.918;2024-03-02T19:19:13;47.0;;;43.0;;
22673;SDS011;11504;43.334;21.918;2024-03-02T19:23:50;45.0;;;40.0;;
22673;SDS011;11504;43.334;21.918;2024-03-02T19:28:26;45.0;;;40.0;;
22673;SDS011;11504;43.334;21.918;2024-03-02T19:33:03;44.0;;;40.0;;
22673;SDS011;11504;43.334;21.918;2024-03-02T19:37:39;44.0;;;40.0;;
22673;SDS011;11504;43.334;21.918;2024-03-02T19:42:15;42.0;;;40.0;;
22673;SDS011;11504;43.334;21.918;2024-03-02T19:46:51;42.0;;;40.0;;
22673;SDS011;11504;43.334;21.918;2024-03-02T19:51:28;46.0;;;44.0;;
22673;SDS011;11504;43.334;21.918;2024-03-02T19:56:04;46.0;;;44.0;;
22673;SDS011;11504;43.334;21.918;2024-03-02T20:00:41;49.0;;;47.0;;
22673;SDS011;11504;43.334;21.918;2024-03-02T20:05:18;49.0;;;47.0;;
22673;SDS011;11504;43.334;21.918;2024-03-02T20:09:54;54.0;;;51.0;;
22673;SDS011;11504;43.334;21.918;2024-03-02T20:14:30;54.0;;;51.0;;
22673;SDS011;11504;43.334;21.918;2024-03-02T20:19:06;54.0;;;51.0;;
22673;SDS011;11504;43.334;21.918;2024-03-02T20:23:42;58.0;;;55.0;;
22673;SDS011;11504;43.334;21.918;2024-03-02T20:28:19;58.0;;;55.0;;
22673;SDS011;11504;43.334;21.918;2024-03-02T20:32:55;52.0;;;50.0;;
22673;SDS011;11504;43.334;21.918;2024-03-02T20:37:31;52.0;;;50.0;;
22673;SDS011;11504;43.334;21.918;2024-03-02T20:42:08;46.0;;;44.0;;
22673;SDS011;11504;43.334;21.918;2024-03-02T20:46:45;46.0;;;44.0;;
22673;SDS011;11504;43.334;21.918;2024-03-02T20:51:22;50.0;;;48.0;;
22673;SDS011;11504;43.334;21.918;2024-03-02T20:55:59;50.0;;;48.0;;
22673;SDS011;11504;43.334;21.918;2024-03-02T21:00:35;54.0;;;52.0;;
22673;SDS011;11504;43.334;21.918;2024-03-02T21:05:11;54.0;;;52.0;;
22673;SDS011;11504;43.334;21.918;2024-03-02T21:09:47;54.0;;;52.0;;
22673;SDS011;11504;43.334;21.918;2024-03-02T21:14:23;48.0;;;46.0;;
22673;SDS011;11504;43.334;21.918;2024-03-02T21:19:00;48.0;;;46.0;;
22673;SDS011;11504;43.334;21.918;2024-03-02T21:23:36;42.0;;;40.0;;
22673;SDS011;11504;43.334;21.918;2024-03-02T21:28:12;42.0;;;40.0;;
22673;SDS011;11504;43.334;21.918;2024-03-02T21:32:51;45.0;;;43.0;;
22673;SDS011;11504;43.334;21.918;2024-03-02T21:37:27;45.0;;;43.0;;
22673;SDS011;11504;43.334;21.918;2024-03-02T21:42:04;48.0;;;46.0;;
22673;SDS011;11504;43.334;21.918;2024-03-02T21:46:40;48.0;;;46.0;;
22673;SDS011;11504;43.334;21.918;2024-03-02T21:51:17;39.0;;;38.0;;
22673;SDS011;11504;43.334;21.918;2024-03-02T21:55:54;39.0;;;38.0;;
22673;SDS011;11504;43.334;21.918;2024-03-02T22:00:30;30.0;;;29.0;;
22673;SDS011;11504;43.334;21.918;2024-03-02T22:05:07;30.0;;;29.0;;
22673;SDS011;11504;43.334;21.918;2024-03-02T22:09:44;30.0;;;29.0;;
22673;SDS011;11504;43.334;21.918;2024-03-02T22:14:20;30.0;;;29.0;;
22673;SDS011;11504;43.334;21.918;2024-03-02T22:18:56;30.0;;;29.0;;
22673;SDS011;11504;43.334;21.918;2024-03-02T22:23:32;31.0;;;29.0;;
22673;SDS011;11504;43.334;21.918;2024-03-02T22:28:12;31.0;;;29.0;;
22673;SDS011;11504;43.334;21.918;2024-03-02T22:32:48;34.0;;;32.0;;
22673;SDS011;11504;43.334;21.918;2024-03-02T22:37:24;34.0;;;32.0;;
22673;SDS011;11504;43.334;21.918;2024-03-02T22:42:00;37.0;;;35.0;;
22673;SDS011;11504;43.334;21.918;2024-03-02T22:46:36;37.0;;;35.0;;
22673;SDS011;11504;43.334;21.918;2024-03-02T22:51:20;36.0;;;34.0;;
22673;SDS011;11504;43.334;21.918;2024-03-02T22:55:57;36.0;;;34.0;;
22673;SDS011;11504;43.334;21.918;2024-03-02T23:00:34;34.0;;;32.0;;
22673;SDS011;11504;43.334;21.918;2024-03-02T23:05:10;34.0;;;32.0;;
22673;SDS011;11504;43.334;21.918;2024-03-02T23:09:46;34.0;;;32.0;;
22673;SDS011;11504;43.334;21.918;2024-03-02T23:14:23;32.0;;;30.0;;
22673;SDS011;11504;43.334;21.918;2024-03-02T23:19:01;32.0;;;30.0;;
22673;SDS011;11504;43.334;21.918;2024-03-02T23:23:37;31.0;;;29.0;;
22673;SDS011;11504;43.334;21.918;2024-03-02T23:28:15;31.0;;;29.0;;
22673;SDS011;11504;43.334;21.918;2024-03-02T23:32:51;36.0;;;34.0;;
22673;SDS011;11504;43.334;21.918;2024-03-02T23:37:28;36.0;;;34.0;;
22673;SDS011;11504;43.334;21.918;2024-03-02T23:42:04;41.0;;;39.0;;
22673;SDS011;11504;43.334;21.918;2024-03-02T23:46:40;41.0;;;39.0;;
22673;SDS011;11504;43.334;21.918;2024-03-02T23:51:17;41.0;;;39.0;;
22673;SDS011;11504;43.334;21.918;2024-03-02T23:55:55;41.0;;;39.0;;
